首页
METAR-TAF:

METAR-TAF

机场 :

格域機場, 英格兰

纬度: 51-09N, 经度: 000-11W, 海拔: 62米

当前天气观测

该预报发布于27分钟前的22:50 UTC
风速9节,风向
温度 13°C
湿度 82%
气压 1006 hPa
能见度10公里或以上
少量云层高于4200英尺
小雨

METAR: EGKK 032250Z 01009KT 9999 -RA FEW042 13/10 Q1006

时间: 00:17 (23:17 UTC)

预报

该预报发布于6小时和24分钟前的16:53 UTC
预报有效从03日的 18点(UTC)到 04日的 24点(UTC)
风速8节,风向
能见度10公里或以上
散云层高于3000英尺
几率 40% :
短暂存在
从 03日的 18点(UTC)到 03日的 24点(UTC)
能見度: 8000
小雨
几率 30% :
短暂存在
从 03日的 18点(UTC)到 03日的 24点(UTC)
多云层高于1400英尺
短暂存在
从 04日的 00点(UTC)到 04日的 09点(UTC)
能見度: 8000
多云层高于1200英尺
小雨, 毛毛雨
几率 30% :
短暂存在
从 04日的 00点(UTC)到 04日的 09点(UTC)
几率 30% :
短暂存在
从 04日的 16点(UTC)到 04日的 24点(UTC)
能見度: 7000
阵雨

TAF: EGKK 031653Z 0318/0424 01008KT 9999 SCT030 PROB40 TEMPO 0318/0324 8000 -RA PROB30 TEMPO 0318/0324 RA BKN014 TEMPO 0400/0409 8000 -RADZ BKN012 PROB30 TEMPO 0400/0409 RA PROB30 TEMPO 0416/0424 7000 SHRA

超过4000个机场的气象观测和天气预报(METAR&TAF报告)。

可查询的气象台以黄色和红色小点在地图上表示。

将鼠标移到小点上方,可查看气象台名称。

然后点击查看天气观测和预报。

如需切换地图:点击带黑十字的绿色按钮放大地图;点击带横线的绿色按钮缩小地图;或者点击绿色箭头查看邻近地区的地图。


METAR-TAF: